Time;durP1;ratioP1;P1;durP2;ratioP2;P2;SDS_P1;SDS_P2;PMS_P1;PMS_P2;Temp;Humidity;BMP_temperature;BMP_pressure;BME280_temperature;BME280_humidity;BME280_pressure;Samples;Min_cycle;Max_cycle;Signal;HPM_P1;HPM_P2
2023/04/12 01:45:33;;;;;;;15.80;11.60;;;;;;;9.85;67.22;98385.44;220021;191;666167;-64
2023/04/12 01:51:11;;;;;;;15.90;11.40;;;;;;;9.83;67.02;98382.71;223495;188;139056;-65
2023/04/12 01:56:35;;;;;;;14.20;11.20;;;;;;;9.76;66.83;98392.40;223468;187;143682;-67
2023/04/12 02:01:43;;;;;;;17.90;12.40;;;;;;;9.66;67.10;98390.27;223420;186;138760;-66
2023/04/12 02:06:51;;;;;;;15.50;11.30;;;;;;;9.59;67.36;98395.66;223528;185;136054;-64
2023/04/12 02:43:58;;;;;;;6.90;5.50;;;;;;;9.60;66.95;98399.21;219833;192;666739;-68
2023/04/12 02:48:54;;;;;;;4.90;3.90;;;;;;;9.47;66.62;98403.57;220781;187;136521;-65
2023/04/12 03:00:42;;;;;;;;;;;;;;;9.22;66.60;98404.91;220995;184;138432;-65
2023/04/12 03:39:13;;;;;;;4.90;2.80;;;;;;;9.37;65.66;98405.51;223742;220;139000;-67
2023/04/12 03:58:00;;;;;;;3.50;2.70;;;;;;;9.28;65.56;98405.77;224220;216;138423;-64
2023/04/12 04:21:48;;;;;;;9.80;6.10;;;;;;;9.16;66.29;98418.80;223775;181;137083;-65
2023/04/12 04:26:53;;;;;;;11.30;7.90;;;;;;;9.20;66.32;98414.40;223893;181;145203;-66
2023/04/12 04:32:01;;;;;;;15.20;9.20;;;;;;;9.16;66.27;98414.84;223904;182;140685;-66
2023/04/12 04:37:05;;;;;;;14.30;9.40;;;;;;;9.15;66.47;98419.55;223998;181;138021;-66
2023/04/12 04:42:09;;;;;;;14.90;10.20;;;;;;;9.23;66.33;98422.52;223854;182;145335;-66
2023/04/12 04:47:14;;;;;;;;;;;;;;;9.32;65.96;98426.39;223902;182;139114;-68
2023/04/12 04:52:18;;;;;;;14.30;9.70;;;;;;;9.31;65.74;98427.14;224023;182;129102;-66
2023/04/12 04:57:25;;;;;;;15.00;10.30;;;;;;;9.34;65.65;98437.98;223901;181;145587;-64
2023/04/12 05:02:30;;;;;;;18.20;11.10;;;;;;;9.26;65.61;98439.37;223982;182;140672;-64
2023/04/12 05:07:37;;;;;;;16.20;10.90;;;;;;;9.24;65.91;98439.11;223889;182;136586;-64
2023/04/12 05:13:10;;;;;;;15.40;10.90;;;;;;;9.17;65.97;98439.77;223875;181;145233;-65
2023/04/12 05:18:37;;;;;;;15.30;11.20;;;;;;;9.11;66.17;98440.51;223846;181;141475;-67
2023/04/12 05:23:47;;;;;;;47.20;33.90;;;;;;;9.19;66.14;98441.73;223876;182;139610;-63
2023/04/12 05:28:52;;;;;;;70.00;49.00;;;;;;;9.22;66.09;98442.80;223907;182;145222;-64
2023/04/12 05:33:58;;;;;;;21.50;17.20;;;;;;;9.19;65.93;98447.23;223882;182;138157;-63
2023/04/12 05:39:07;;;;;;;14.20;10.00;;;;;;;9.27;66.06;98447.05;223861;181;137284;-64
2023/04/12 05:44:12;;;;;;;16.10;10.40;;;;;;;9.30;65.58;98451.66;223855;182;147019;-63
2023/04/12 05:49:16;;;;;;;13.70;9.90;;;;;;;9.32;65.52;98453.30;223777;182;138231;-64
2023/04/12 05:54:20;;;;;;;13.50;10.90;;;;;;;9.27;65.67;98448.65;223947;182;137273;-65
2023/04/12 05:59:26;;;;;;;15.80;11.00;;;;;;;9.26;65.90;98446.10;223848;182;145498;-68
2023/04/12 06:04:42;;;;;;;15.50;10.60;;;;;;;9.29;65.69;98448.35;223883;182;138514;-66
2023/04/12 06:09:55;;;;;;;14.60;11.00;;;;;;;9.28;65.32;98447.52;223954;182;137024;-63
2023/04/12 06:14:59;;;;;;;15.40;11.20;;;;;;;9.21;65.43;98445.50;223891;182;145648;-64
2023/04/12 06:20:08;;;;;;;14.00;10.30;;;;;;;9.16;65.41;98452.05;223891;182;138207;-67
2023/04/12 06:25:33;;;;;;;12.80;9.00;;;;;;;9.14;65.65;98448.64;223944;182;138232;-66
2023/04/12 06:30:42;;;;;;;30.20;19.80;;;;;;;9.15;65.63;98448.73;223949;182;145841;-65
2023/04/12 06:35:47;;;;;;;13.70;10.10;;;;;;;9.25;65.62;98438.90;223918;181;138986;-64
2023/04/12 06:48:12;;;;;;;13.40;9.40;;;;;;;9.55;64.57;98427.54;221023;184;136463;-63
2023/04/12 06:53:33;;;;;;;13.30;9.40;;;;;;;9.49;63.93;98433.41;223406;184;143944;-64
2023/04/12 06:58:54;;;;;;;16.10;10.80;;;;;;;9.37;64.09;98436.10;223607;183;138418;-64
2023/04/12 07:04:02;;;;;;;19.40;10.70;;;;;;;9.37;64.16;98430.85;223677;184;137233;-63
2023/04/12 07:09:10;;;;;;;16.40;10.70;;;;;;;9.31;64.42;98435.11;223732;185;143430;-65
2023/04/12 07:14:33;;;;;;;15.90;11.80;;;;;;;9.33;64.33;98431.11;223785;183;138947;-67
2023/04/12 07:19:46;;;;;;;21.20;13.50;;;;;;;9.37;64.77;98433.11;223733;183;138414;-64
2023/04/12 07:25:08;;;;;;;19.20;12.60;;;;;;;9.50;64.45;98434.91;223892;183;143447;-64
2023/04/12 07:30:13;;;;;;;20.50;12.40;;;;;;;9.52;63.79;98440.13;223930;183;139218;-63
2023/04/12 07:35:17;;;;;;;18.40;11.80;;;;;;;9.47;63.83;98442.54;223864;183;137385;-68
2023/04/12 07:43:41;;;;;;;21.80;11.50;;;;;;;9.53;63.85;98442.17;220462;189;665747;-65
2023/04/12 07:48:46;;;;;;;23.80;11.40;;;;;;;9.62;63.99;98441.73;221775;189;137777;-66
2023/04/12 07:53:51;;;;;;;20.10;12.10;;;;;;;9.75;63.71;98440.48;223153;188;143854;-64
2023/04/12 08:43:10;;;;;;;18.90;12.80;;;;;;;10.09;61.53;98425.39;219811;190;691004;-65
2023/04/12 08:48:28;;;;;;;17.10;12.60;;;;;;;10.21;61.31;98416.34;222349;184;137333;-66
2023/04/12 08:53:33;;;;;;;20.50;11.40;;;;;;;10.34;61.29;98409.95;223785;183;144922;-68
2023/04/12 08:58:44;;;;;;;21.60;11.20;;;;;;;10.50;60.82;98405.98;223815;183;138938;-63
2023/04/12 09:04:05;;;;;;;15.20;10.20;;;;;;;10.55;60.58;98407.80;223955;184;136945;-63
2023/04/12 09:09:11;;;;;;;17.20;10.60;;;;;;;10.64;60.19;98400.92;223641;183;143948;-64
2023/04/12 09:14:59;;;;;;;17.40;9.80;;;;;;;10.78;60.07;98394.39;223785;183;138503;-65
2023/04/12 09:20:27;;;;;;;14.80;9.30;;;;;;;10.95;59.64;98387.09;223760;183;136996;-67
2023/04/12 09:25:44;;;;;;;16.10;9.60;;;;;;;11.03;59.06;98385.12;223843;183;143463;-66
2023/04/12 09:30:52;;;;;;;14.90;9.00;;;;;;;11.04;58.74;98384.50;223265;182;138430;-62
2023/04/12 09:36:01;;;;;;;10.20;7.80;;;;;;;11.14;58.24;98376.84;223854;180;136765;-66
2023/04/12 09:41:29;;;;;;;238.00;152.90;;;;;;;11.22;57.75;98371.06;223605;182;145322;-65
2023/04/12 09:46:33;;;;;;;14.70;9.20;;;;;;;11.29;58.39;98368.73;223733;182;142019;-65
2023/04/12 09:51:38;;;;;;;14.50;8.40;;;;;;;11.28;58.45;98359.65;223984;182;137816;-67
2023/04/12 09:56:43;;;;;;;15.00;8.90;;;;;;;11.28;58.59;98354.66;223925;181;145158;-70
2023/04/12 10:01:46;;;;;;;15.00;8.80;;;;;;;11.42;58.32;98349.84;223881;181;140105;-69
2023/04/12 10:06:51;;;;;;;15.40;8.60;;;;;;;11.88;57.34;98341.16;223846;182;136802;-63
2023/04/12 10:11:58;;;;;;;16.90;8.30;;;;;;;12.22;55.65;98337.42;223799;182;145619;-64
2023/04/12 10:17:04;;;;;;;12.90;7.70;;;;;;;12.12;54.42;98335.67;223851;182;138335;-64
2023/04/12 10:22:08;;;;;;;13.90;7.70;;;;;;;11.93;54.40;98335.29;223915;182;137388;-65
2023/04/12 10:27:12;;;;;;;15.00;7.50;;;;;;;11.80;54.45;98330.59;223827;182;146894;-68
2023/04/12 10:32:21;;;;;;;13.30;6.60;;;;;;;11.84;54.35;98327.43;223846;182;138682;-65
2023/04/12 10:38:00;;;;;;;9.00;5.50;;;;;;;11.94;54.46;98323.75;223631;182;137531;-63
2023/04/12 10:43:23;;;;;;;10.60;5.80;;;;;;;12.03;53.43;98317.16;223593;183;145172;-63
2023/04/12 10:48:32;;;;;;;12.60;6.80;;;;;;;12.11;53.53;98313.55;223613;181;139964;-65
2023/04/12 10:53:36;;;;;;;14.10;6.30;;;;;;;12.26;53.59;98306.59;223587;181;136844;-64
2023/04/12 10:58:47;;;;;;;95.40;63.70;;;;;;;12.44;54.80;98299.83;223658;181;145574;-65
2023/04/12 11:04:20;;;;;;;16.40;7.30;;;;;;;12.51;53.71;98299.09;223597;204;138943;-68
2023/04/12 11:09:36;;;;;;;10.10;5.80;;;;;;;12.39;52.64;98295.84;223664;185;136817;-69
2023/04/12 11:42:55;;;;;;;167.80;103.30;;;;;;;12.26;51.25;98287.44;219516;193;666060;-71
2023/04/12 11:48:08;;;;;;;11.00;6.30;;;;;;;12.29;51.73;98284.52;223707;181;137262;-67
2023/04/12 11:53:12;;;;;;;8.60;4.80;;;;;;;12.38;51.48;98280.60;223823;181;144292;-64
2023/04/12 11:58:17;;;;;;;7.30;4.80;;;;;;;12.41;51.90;98278.58;223866;184;138662;-64
2023/04/12 12:03:21;;;;;;;10.80;5.20;;;;;;;12.45;52.60;98267.93;224159;181;137499;-66
2023/04/12 12:08:26;;;;;;;10.30;5.60;;;;;;;12.52;52.20;98261.11;223857;181;157541;-65
2023/04/12 12:13:49;;;;;;;8.80;4.20;;;;;;;12.59;51.35;98257.88;223831;181;138268;-65
2023/04/12 12:18:53;;;;;;;9.20;5.20;;;;;;;12.68;51.72;98252.17;223914;181;136643;-65
2023/04/12 12:23:57;;;;;;;10.10;5.10;;;;;;;12.84;52.52;98250.62;223851;181;143827;-65
2023/04/12 12:29:01;;;;;;;9.50;5.30;;;;;;;13.00;51.95;98244.70;223983;181;140326;-66
2023/04/12 12:34:04;;;;;;;11.50;5.40;;;;;;;13.10;51.29;98243.10;223922;207;136438;-64
2023/04/12 12:39:11;;;;;;;11.90;4.50;;;;;;;13.18;50.53;98231.92;223876;181;145251;-65
2023/04/12 12:44:15;;;;;;;10.70;4.80;;;;;;;13.29;50.02;98225.49;223759;181;138082;-65
2023/04/12 12:49:19;;;;;;;9.00;4.90;;;;;;;13.39;50.33;98217.86;223752;181;138208;-67
2023/04/12 12:54:22;;;;;;;7.40;4.60;;;;;;;13.49;50.23;98209.96;223809;182;145119;-64
2023/04/12 12:59:43;;;;;;;8.70;4.80;;;;;;;13.48;49.09;98203.62;223846;181;138335;-64
2023/04/12 13:04:47;;;;;;;10.10;4.90;;;;;;;13.49;49.38;98195.58;223752;182;137010;-67
2023/04/12 13:09:51;;;;;;;25.80;16.80;;;;;;;13.53;50.14;98190.56;223803;214;145545;-64
2023/04/12 13:14:56;;;;;;;9.50;5.40;;;;;;;13.56;50.02;98187.85;223780;181;139103;-64
2023/04/12 13:20:23;;;;;;;8.50;4.60;;;;;;;13.57;50.25;98186.29;223768;181;137343;-64
2023/04/12 13:25:26;;;;;;;7.40;4.80;;;;;;;13.51;49.85;98182.55;223791;181;145141;-66
2023/04/12 13:30:30;;;;;;;10.30;5.20;;;;;;;13.45;49.44;98182.88;223675;181;142349;-63
2023/04/12 13:35:34;;;;;;;9.40;5.30;;;;;;;13.33;49.03;98179.90;223879;181;136801;-64
2023/04/12 13:43:01;;;;;;;11.60;4.70;;;;;;;13.25;49.61;98173.41;219671;226;686641;-67
2023/04/12 13:48:05;;;;;;;10.00;4.60;;;;;;;13.20;49.94;98177.75;221194;181;137094;-66
2023/04/12 13:53:11;;;;;;;10.70;4.80;;;;;;;13.14;49.74;98168.10;221215;181;143947;-64
2023/04/12 13:58:15;;;;;;;9.60;5.00;;;;;;;13.09;49.63;98166.28;221242;193;139260;-66
2023/04/12 14:03:19;;;;;;;8.00;5.30;;;;;;;13.05;49.90;98169.27;223731;182;136362;-64
2023/04/12 14:08:23;;;;;;;11.60;4.60;;;;;;;12.97;49.80;98165.45;223663;182;144016;-64
2023/04/12 14:13:26;;;;;;;12.70;5.10;;;;;;;12.95;50.07;98164.02;223590;183;138208;-66
2023/04/12 14:18:29;;;;;;;8.60;5.20;;;;;;;13.01;50.56;98167.84;223603;182;139864;-66
2023/04/12 14:23:32;;;;;;;12.80;6.10;;;;;;;13.01;50.92;98164.59;223578;182;144029;-66
2023/04/12 14:28:35;;;;;;;14.00;5.80;;;;;;;13.07;51.13;98169.33;223584;193;138232;-66
2023/04/12 14:33:38;;;;;;;11.60;6.10;;;;;;;13.04;51.31;98165.98;223641;212;140428;-67
2023/04/12 14:38:42;;;;;;;15.40;6.80;;;;;;;13.06;51.52;98168.27;223596;182;145625;-66
2023/04/12 14:44:08;;;;;;;13.90;7.30;;;;;;;13.06;51.30;98166.48;223768;182;139492;-64
2023/04/12 14:49:13;;;;;;;15.20;7.90;;;;;;;13.03;51.15;98170.17;223570;182;137006;-67
2023/04/12 14:54:16;;;;;;;11.70;7.40;;;;;;;12.95;51.45;98169.43;223450;183;145277;-64
2023/04/12 14:59:20;;;;;;;9.40;6.20;;;;;;;12.95;51.78;98164.59;223612;183;138626;-64
2023/04/12 15:04:24;;;;;;;12.50;6.70;;;;;;;12.97;52.35;98159.54;223640;216;136457;-64
2023/04/12 15:09:32;;;;;;;14.00;7.00;;;;;;;13.05;51.86;98163.39;223588;184;145137;-63
2023/04/12 15:14:36;;;;;;;13.00;6.90;;;;;;;13.12;51.72;98157.06;223712;183;138266;-66
2023/04/12 15:19:39;;;;;;;10.90;6.10;;;;;;;13.15;51.75;98154.64;223670;182;138071;-66
2023/04/12 15:24:42;;;;;;;137.30;96.40;;;;;;;13.25;51.50;98155.78;223566;183;145269;-65
2023/04/12 15:29:45;;;;;;;12.00;7.40;;;;;;;13.35;51.42;98148.12;223539;216;139800;-65
2023/04/12 15:34:49;;;;;;;14.20;5.50;;;;;;;13.32;49.94;98141.27;223601;182;137076;-65
2023/04/12 15:39:53;;;;;;;11.80;5.10;;;;;;;13.30;49.93;98140.41;223591;215;147548;-66
2023/04/12 15:44:57;;;;;;;9.20;5.00;;;;;;;13.27;49.10;98137.84;223599;183;140661;-66
2023/04/12 15:50:04;;;;;;;7.60;4.80;;;;;;;13.32;49.55;98132.74;223568;186;136536;-64
2023/04/12 15:55:10;;;;;;;7.90;5.00;;;;;;;13.39;49.92;98128.76;223654;182;144998;-67
2023/04/12 16:00:22;;;;;;;9.60;5.60;;;;;;;13.40;49.72;98117.08;223635;183;138604;-65
2023/04/12 16:05:26;;;;;;;7.10;4.90;;;;;;;13.42;49.70;98115.11;223607;182;137636;-65
2023/04/12 16:10:29;;;;;;;8.60;5.10;;;;;;;13.73;49.37;98114.29;223613;216;145128;-66
2023/04/12 16:15:33;;;;;;;9.00;4.90;;;;;;;14.99;48.42;98108.16;223590;193;138363;-68
2023/04/12 16:20:36;;;;;;;7.80;5.10;;;;;;;15.92;46.16;98097.06;223618;182;136559;-66
2023/04/12 16:25:39;;;;;;;11.20;6.30;;;;;;;15.94;45.55;98096.15;223608;182;145062;-67
2023/04/12 16:30:42;;;;;;;17.30;6.30;;;;;;;15.57;45.66;98093.73;223541;215;139000;-68
2023/04/12 16:35:45;;;;;;;11.90;6.40;;;;;;;15.28;45.86;98095.59;223530;183;137014;-66
2023/04/12 16:40:48;;;;;;;16.10;6.90;;;;;;;14.88;46.14;98093.33;223529;205;145354;-67
2023/04/12 16:45:52;;;;;;;13.20;6.70;;;;;;;14.47;46.85;98094.37;223470;216;138333;-68
2023/04/12 16:50:55;;;;;;;12.90;7.30;;;;;;;14.09;47.84;98092.88;223555;182;136780;-68
2023/04/12 16:56:03;;;;;;;12.80;7.20;;;;;;;13.84;48.41;98091.89;223556;182;145913;-69
2023/04/12 17:01:07;;;;;;;95.90;68.70;;;;;;;13.70;49.43;98095.29;223577;205;139186;-66
2023/04/12 17:06:10;;;;;;;10.60;6.50;;;;;;;13.59;49.54;98090.80;223516;182;136991;-65
2023/04/12 17:11:14;;;;;;;10.10;6.00;;;;;;;13.36;49.61;98095.17;223589;183;146930;-66
2023/04/12 17:16:18;;;;;;;15.80;7.60;;;;;;;13.06;50.24;98096.86;223613;182;138428;-68
2023/04/12 17:21:21;;;;;;;14.60;7.80;;;;;;;12.85;50.61;98094.98;223556;183;137483;-67
2023/04/12 17:26:26;;;;;;;16.60;7.40;;;;;;;12.69;51.25;98089.73;223668;183;145699;-68
2023/04/12 17:31:34;;;;;;;14.70;7.50;;;;;;;12.59;51.56;98085.98;223604;182;138913;-67
2023/04/12 17:36:38;;;;;;;129.20;91.40;;;;;;;12.48;52.49;98080.31;222319;182;137361;-67
2023/04/12 17:41:42;;;;;;;17.30;8.80;;;;;;;12.40;53.06;98080.33;223602;181;147302;-69
2023/04/12 17:46:46;;;;;;;18.00;8.20;;;;;;;12.27;52.83;98073.98;223624;216;139104;-65
2023/04/12 17:51:50;;;;;;;12.80;7.00;;;;;;;12.03;53.37;98083.91;223637;186;137362;-72
2023/04/12 17:56:56;;;;;;;17.10;9.80;;;;;;;11.80;53.77;98095.21;221521;182;145684;-69
2023/04/12 18:02:03;;;;;;;15.30;7.50;;;;;;;11.61;54.16;98096.77;221147;183;139358;-66
2023/04/12 18:07:10;;;;;;;17.80;7.90;;;;;;;11.43;54.82;98094.67;221357;182;137885;-66
2023/04/12 18:12:17;;;;;;;15.70;7.90;;;;;;;11.30;55.24;98098.73;223743;182;145351;-73
2023/04/12 18:17:21;;;;;;;14.70;7.70;;;;;;;11.17;55.81;98104.95;223616;182;139096;-66
2023/04/12 18:22:28;;;;;;;16.80;8.10;;;;;;;11.04;56.18;98109.50;223695;182;137757;-67
2023/04/12 18:27:32;;;;;;;120.30;83.60;;;;;;;10.99;56.92;98106.79;223694;184;145094;-66
2023/04/12 18:32:36;;;;;;;22.10;12.70;;;;;;;10.97;57.12;98108.85;223617;182;138207;-65
2023/04/12 18:37:42;;;;;;;20.10;9.00;;;;;;;10.88;57.20;98108.09;223623;182;137446;-67
2023/04/12 19:42:52;;;;;;;18.70;12.50;;;;;;;9.93;60.77;98081.13;219732;192;666664;-72
2023/04/12 19:48:00;;;;;;;20.20;12.70;;;;;;;9.83;61.03;98073.77;223364;187;136474;-66
2023/04/12 19:53:05;;;;;;;25.70;14.50;;;;;;;9.76;61.28;98073.77;223719;184;143617;-70
2023/04/12 19:58:09;;;;;;;22.10;15.00;;;;;;;9.69;61.43;98073.16;223651;215;138458;-71
2023/04/12 20:03:16;;;;;;;21.70;15.00;;;;;;;9.64;61.56;98067.20;223122;182;136521;-70
2023/04/12 20:08:21;;;;;;;24.30;16.60;;;;;;;9.55;61.72;98068.93;223676;182;143483;-69
2023/04/12 20:13:29;;;;;;;26.90;16.70;;;;;;;9.48;62.00;98074.02;223587;181;138741;-69
2023/04/12 20:18:33;;;;;;;30.10;17.50;;;;;;;9.44;62.11;98078.77;223551;182;136919;-69
2023/04/12 20:23:37;;;;;;;25.80;18.20;;;;;;;9.36;62.31;98077.20;223596;196;143415;-67
2023/04/12 20:28:43;;;;;;;28.00;18.90;;;;;;;9.30;62.41;98074.31;223680;182;138929;-74
2023/04/12 20:33:47;;;;;;;28.60;19.50;;;;;;;9.24;62.62;98070.09;221254;181;137486;-71
2023/04/12 20:38:52;;;;;;;31.50;19.90;;;;;;;9.15;62.80;98068.42;222213;181;145754;-71
2023/04/12 20:43:58;;;;;;;31.40;20.40;;;;;;;9.08;63.04;98063.80;223614;183;138107;-70
2023/04/12 20:49:04;;;;;;;32.00;21.20;;;;;;;9.00;63.29;98063.66;223558;181;137149;-68
2023/04/12 20:54:10;;;;;;;30.70;20.40;;;;;;;8.96;63.39;98057.05;223529;182;145123;-67
2023/04/12 20:59:16;;;;;;;28.30;20.20;;;;;;;8.93;63.50;98062.58;223603;182;138609;-68
2023/04/12 21:04:21;;;;;;;;;;;;;;;8.89;63.62;98063.63;223796;183;136989;-67
2023/04/12 21:09:25;;;;;;;31.10;20.20;;;;;;;8.88;63.63;98063.11;223625;182;145304;-69
2023/04/12 21:14:29;;;;;;;36.80;22.60;;;;;;;8.92;63.74;98059.49;223602;182;138407;-66
2023/04/12 21:19:51;;;;;;;;;;;;;;;;;;;;;
2023/04/12 21:24:55;;;;;;;36.70;24.30;;;;;;;8.87;63.71;98062.16;223654;181;145102;-67
2023/04/12 21:30:00;;;;;;;34.70;23.00;;;;;;;8.86;63.80;98060.84;223669;181;138536;-66
2023/04/12 21:35:15;;;;;;;35.50;22.30;;;;;;;8.80;63.75;98061.06;223893;183;136834;-68
2023/04/12 21:42:58;;;;;;;38.20;22.50;;;;;;;8.71;64.05;98047.87;219891;193;665703;-69
2023/04/12 21:48:07;;;;;;;32.40;21.10;;;;;;;8.61;64.10;98042.25;220739;187;137204;-69
2023/04/12 21:53:11;;;;;;;33.00;22.40;;;;;;;8.53;64.28;98033.62;220596;187;143857;-69
2023/04/12 21:58:18;;;;;;;33.00;22.10;;;;;;;8.47;64.39;98029.40;223054;189;140666;-68
2023/04/12 22:03:23;;;;;;;31.30;21.50;;;;;;;8.43;64.56;98028.25;223310;186;136644;-64
2023/04/12 22:08:28;;;;;;;33.50;20.70;;;;;;;8.39;64.54;98025.21;223156;188;143394;-65
2023/04/12 22:13:44;;;;;;;30.90;20.70;;;;;;;8.32;64.49;98026.51;223220;186;139721;-68
2023/04/12 22:18:49;;;;;;;31.70;21.80;;;;;;;8.26;64.68;98021.30;223308;186;136517;-67
2023/04/12 22:24:02;;;;;;;34.10;22.20;;;;;;;8.22;64.84;98022.60;223126;188;142387;-67
2023/04/12 22:29:07;;;;;;;34.60;22.40;;;;;;;8.20;65.05;98019.95;223204;188;138928;-64
2023/04/12 22:34:11;;;;;;;31.30;20.00;;;;;;;8.17;65.00;98024.40;223290;190;137374;-67
2023/04/12 22:42:52;;;;;;;29.00;20.20;;;;;;;8.19;64.88;98010.62;219583;193;666579;-70
2023/04/12 22:48:19;;;;;;;31.70;20.70;;;;;;;8.15;64.83;98011.30;220708;188;136354;-70
2023/04/12 22:53:24;;;;;;;;;;;;;;;8.07;64.77;98004.58;220655;187;143499;-68
2023/04/12 22:59:04;;;;;;;31.00;21.30;;;;;;;7.93;65.02;98004.83;220664;213;140326;-68
2023/04/12 23:04:23;;;;;;;35.00;20.90;;;;;;;7.90;65.33;98006.11;220639;188;137142;-68
2023/04/12 23:09:49;;;;;;;29.60;20.10;;;;;;;7.89;65.30;98002.27;223296;185;143982;-68
2023/04/12 23:15:13;;;;;;;26.70;19.90;;;;;;;7.83;65.51;97997.77;223567;217;138252;-69
2023/04/12 23:26:10;;;;;;;31.60;21.10;;;;;;;7.63;65.82;97988.82;223636;183;143465;-68
2023/04/12 23:31:44;;;;;;;31.50;20.00;;;;;;;7.58;65.86;97986.90;223565;183;139071;-70
2023/04/12 23:36:55;;;;;;;27.90;20.30;;;;;;;7.54;65.94;97973.92;223661;185;137118;-68
2023/04/12 23:43:00;;;;;;;30.30;21.10;;;;;;;7.45;65.74;97955.64;223710;193;145812;-68
2023/04/12 23:48:27;;;;;;;38.00;21.10;;;;;;;7.38;65.67;97943.61;223758;184;139236;-69
2023/04/12 23:53:52;;;;;;;;;;;;;;;7.35;65.41;97937.23;223654;184;137050;-65
2023/04/12 23:58:58;;;;;;;33.30;20.80;;;;;;;7.34;65.08;97932.70;223689;184;145941;-65
